createdAt,value
2019-05-10T00:00:31.827Z,1001.17
2019-05-10T00:01:31.816Z,1001.10
2019-05-10T00:02:31.830Z,1001.17
2019-05-10T00:03:31.774Z,1001.18
2019-05-10T00:04:31.814Z,1001.23
2019-05-10T00:05:31.742Z,1001.19
2019-05-10T00:06:31.716Z,1001.26
2019-05-10T00:07:31.695Z,1001.18
2019-05-10T00:08:31.700Z,1001.22
2019-05-10T00:09:31.659Z,1001.22
2019-05-10T00:10:31.703Z,1001.25
2019-05-10T00:11:31.643Z,1001.23
2019-05-10T00:12:31.614Z,1001.26
2019-05-10T00:13:31.583Z,1001.25
2019-05-10T00:14:31.571Z,1001.27
2019-05-10T00:15:31.545Z,1001.29
2019-05-10T00:16:31.543Z,1001.28
2019-05-10T00:17:31.507Z,1001.32
2019-05-10T00:18:31.502Z,1001.26
2019-05-10T00:19:31.468Z,1001.30
2019-05-10T00:20:31.447Z,1001.30
2019-05-10T00:21:31.429Z,1001.31
2019-05-10T00:22:31.409Z,1001.29
2019-05-10T00:23:31.422Z,1001.26
2019-05-10T00:24:31.365Z,1001.24
2019-05-10T00:25:31.355Z,1001.25
2019-05-10T00:26:31.330Z,1001.24
2019-05-10T00:27:31.314Z,1001.26
2019-05-10T00:28:31.323Z,1001.25
2019-05-10T00:29:31.294Z,1001.24
2019-05-10T00:30:31.269Z,1001.27
2019-05-10T00:31:31.238Z,1001.26
2019-05-10T00:32:31.212Z,1001.22
2019-05-10T00:33:31.193Z,1001.25
2019-05-10T00:34:31.175Z,1001.25
2019-05-10T00:35:31.196Z,1001.27
2019-05-10T00:36:31.142Z,1001.28
2019-05-10T00:37:31.116Z,1001.25
2019-05-10T00:38:31.098Z,1001.33
2019-05-10T00:39:31.077Z,1001.30
2019-05-10T00:40:31.074Z,1001.28
2019-05-10T00:41:31.039Z,1001.26
2019-05-10T00:42:31.019Z,1001.26
2019-05-10T00:43:31.001Z,1001.29
2019-05-10T00:44:30.997Z,1001.24
2019-05-10T00:45:30.958Z,1001.28
2019-05-10T00:46:30.939Z,1001.27
2019-05-10T00:47:30.922Z,1001.25
2019-05-10T00:48:30.904Z,1001.30
2019-05-10T00:49:30.886Z,1001.35
2019-05-10T00:50:30.891Z,1001.33
2019-05-10T00:51:30.841Z,1001.34
2019-05-10T00:52:30.824Z,1001.32
2019-05-10T00:53:30.802Z,1001.32
2019-05-10T00:54:30.785Z,1001.33
2019-05-10T00:55:30.765Z,1001.39
2019-05-10T00:56:30.764Z,1001.35
2019-05-10T00:57:30.728Z,1001.37
2019-05-10T00:58:30.708Z,1001.39
2019-05-10T00:59:30.686Z,1001.40
2019-05-10T01:00:30.673Z,1001.40
2019-05-10T01:01:30.667Z,1001.42
2019-05-10T01:02:30.652Z,1001.40
2019-05-10T01:03:30.650Z,1001.42
2019-05-10T01:04:30.667Z,1001.42
2019-05-10T01:05:30.609Z,1001.35
2019-05-10T01:06:30.555Z,1001.40
2019-05-10T01:07:30.537Z,1001.36
2019-05-10T01:08:30.534Z,1001.43
2019-05-10T01:09:30.501Z,1001.44
2019-05-10T01:10:30.477Z,1001.43
2019-05-10T01:11:30.690Z,1001.43
2019-05-10T01:12:30.446Z,1001.43
2019-05-10T01:13:30.422Z,1001.45
2019-05-10T01:14:30.417Z,1001.44
2019-05-10T01:15:30.400Z,1001.43
2019-05-10T01:16:30.362Z,1001.41
2019-05-10T01:17:30.345Z,1001.46
2019-05-10T01:18:30.324Z,1001.45
2019-05-10T01:19:30.315Z,1001.43
2019-05-10T01:20:30.279Z,1001.44
2019-05-10T01:21:30.277Z,1001.38
2019-05-10T01:22:30.242Z,1001.41
2019-05-10T01:23:30.225Z,1001.46
2019-05-10T01:24:30.222Z,1001.44
2019-05-10T01:25:35.043Z,1001.43
2019-05-10T01:26:30.184Z,1001.43
2019-05-10T01:27:30.144Z,1001.43
2019-05-10T01:28:30.123Z,1001.45
2019-05-10T01:29:30.105Z,1001.48
2019-05-10T01:30:30.107Z,1001.48
2019-05-10T01:31:30.060Z,1001.45
2019-05-10T01:32:30.052Z,1001.48
2019-05-10T01:33:30.030Z,1001.47
2019-05-10T01:34:30.013Z,1001.47
2019-05-10T01:35:29.988Z,1001.45
2019-05-10T01:36:29.986Z,1001.50
2019-05-10T01:37:29.954Z,1001.53
2019-05-10T01:38:29.991Z,1001.52
2019-05-10T01:39:29.913Z,1001.49
2019-05-10T01:40:29.899Z,1001.52
2019-05-10T01:41:29.888Z,1001.53
2019-05-10T01:42:29.855Z,1001.53
2019-05-10T01:43:29.836Z,1001.53
2019-05-10T01:44:29.834Z,1001.52
2019-05-10T01:45:29.794Z,1001.59
2019-05-10T01:46:29.775Z,1001.61
2019-05-10T01:47:29.773Z,1001.61
2019-05-10T01:48:29.733Z,1001.53
2019-05-10T01:49:29.745Z,1001.58
2019-05-10T01:50:29.694Z,1001.52
2019-05-10T01:51:29.678Z,1001.59
2019-05-10T01:52:29.659Z,1001.56
2019-05-10T01:53:29.635Z,1001.59
2019-05-10T01:54:29.635Z,1001.59
2019-05-10T01:55:29.621Z,1001.58
2019-05-10T01:56:29.576Z,1001.59
2019-05-10T01:57:29.564Z,1001.60
2019-05-10T01:58:29.546Z,1001.60
2019-05-10T01:59:29.565Z,1001.62
2019-05-10T02:00:29.501Z,1001.60
2019-05-10T02:01:29.498Z,1001.60
2019-05-10T02:02:29.483Z,1001.66
2019-05-10T02:03:29.439Z,1001.63
2019-05-10T02:04:29.473Z,1001.62
2019-05-10T02:05:29.408Z,1001.63
2019-05-10T02:06:29.390Z,1001.64
2019-05-10T02:07:29.386Z,1001.65
2019-05-10T02:08:29.349Z,1001.63
2019-05-10T02:09:33.077Z,1001.61
2019-05-10T02:10:29.310Z,1001.66
2019-05-10T02:11:29.291Z,1001.64
2019-05-10T02:12:29.363Z,1001.68
2019-05-10T02:13:29.261Z,1001.66
2019-05-10T02:14:29.240Z,1001.67
2019-05-10T02:15:29.211Z,1001.68
2019-05-10T02:16:29.193Z,1001.69
2019-05-10T02:17:29.176Z,1001.68
2019-05-10T02:18:29.168Z,1001.68
2019-05-10T02:19:29.134Z,1001.67
2019-05-10T02:20:29.115Z,1001.66
2019-05-10T02:21:29.099Z,1001.68
2019-05-10T02:22:29.073Z,1001.68
2019-05-10T02:23:29.073Z,1001.66
2019-05-10T02:24:29.039Z,1001.66
2019-05-10T02:25:29.020Z,1001.64
2019-05-10T02:26:29.000Z,1001.66
2019-05-10T02:27:28.997Z,1001.68
2019-05-10T02:28:28.959Z,1001.70
2019-05-10T02:29:28.941Z,1001.69
2019-05-10T02:30:28.918Z,1001.72
2019-05-10T02:31:28.926Z,1001.76
2019-05-10T02:32:28.885Z,1001.71
2019-05-10T02:33:28.881Z,1001.72
2019-05-10T02:34:28.845Z,1001.74
2019-05-10T02:35:28.833Z,1001.72
2019-05-10T02:36:28.825Z,1001.74
2019-05-10T02:37:28.823Z,1001.75
2019-05-10T02:38:28.769Z,1001.72
2019-05-10T02:39:28.744Z,1001.72
2019-05-10T02:40:28.725Z,1001.77
2019-05-10T02:41:28.706Z,1001.77
2019-05-10T02:42:28.710Z,1001.78
2019-05-10T02:43:28.671Z,1001.78
2019-05-10T02:44:28.652Z,1001.78
2019-05-10T02:45:28.640Z,1001.82
2019-05-10T02:46:28.610Z,1001.79
2019-05-10T02:47:28.586Z,1001.80
2019-05-10T02:48:28.588Z,1001.82
2019-05-10T02:49:28.556Z,1001.81
2019-05-10T02:50:28.540Z,1001.81
2019-05-10T02:51:28.513Z,1001.82
2019-05-10T02:52:28.502Z,1001.84
2019-05-10T02:53:28.505Z,1001.85
2019-05-10T02:54:28.466Z,1001.88
2019-05-10T02:55:28.446Z,1001.86
2019-05-10T02:56:30.993Z,1001.87
2019-05-10T02:57:28.399Z,1001.93
2019-05-10T02:58:28.382Z,1001.93
2019-05-10T02:59:28.376Z,1001.89
2019-05-10T03:00:28.357Z,1001.91
2019-05-10T03:01:28.346Z,1002.01
2019-05-10T03:02:28.311Z,1002.01
2019-05-10T03:03:28.280Z,1001.93
2019-05-10T03:04:28.277Z,1001.96
2019-05-10T03:05:28.261Z,1001.98
2019-05-10T03:06:28.327Z,1001.99
2019-05-10T03:07:28.204Z,1002.06
2019-05-10T03:08:28.185Z,1002.04
2019-05-10T03:09:28.233Z,1002.02
2019-05-10T03:10:28.167Z,1002.06
2019-05-10T03:11:28.168Z,1002.08
2019-05-10T03:12:28.123Z,1002.01
2019-05-10T03:13:28.102Z,1002.09
2019-05-10T03:14:28.079Z,1002.09
2019-05-10T03:15:28.087Z,1002.16
2019-05-10T03:16:28.033Z,1002.16
2019-05-10T03:17:28.026Z,1002.09
2019-05-10T03:18:27.994Z,1002.08
2019-05-10T03:19:27.972Z,1002.16
2019-05-10T03:20:27.957Z,1002.16
2019-05-10T03:21:27.942Z,1002.16
2019-05-10T03:22:27.917Z,1002.18
2019-05-10T03:23:27.911Z,1002.16
2019-05-10T03:24:28.305Z,1002.16
2019-05-10T03:25:27.855Z,1002.15
2019-05-10T03:26:27.838Z,1002.18
2019-05-10T03:27:27.814Z,1002.18
2019-05-10T03:28:27.798Z,1002.18
2019-05-10T03:29:27.792Z,1002.31
2019-05-10T03:30:27.759Z,1002.29
2019-05-10T03:31:27.758Z,1002.34
2019-05-10T03:32:27.725Z,1002.31
2019-05-10T03:33:27.703Z,1002.33
2019-05-10T03:34:27.707Z,1002.35
2019-05-10T03:35:27.678Z,1002.39
2019-05-10T03:36:27.641Z,1002.38
2019-05-10T03:37:27.616Z,1002.35
2019-05-10T03:38:27.602Z,1002.38
2019-05-10T03:39:27.595Z,1002.40
2019-05-10T03:40:27.585Z,1002.43
2019-05-10T03:41:27.547Z,1002.42
2019-05-10T03:42:27.529Z,1002.39
2019-05-10T03:43:27.502Z,1002.44
2019-05-10T03:44:27.484Z,1002.40
2019-05-10T03:45:27.602Z,1002.43
2019-05-10T03:46:27.468Z,1002.42
2019-05-10T03:47:27.431Z,1002.41
2019-05-10T03:48:27.401Z,1002.40
2019-05-10T03:49:27.384Z,1002.38
2019-05-10T03:50:27.382Z,1002.44
2019-05-10T03:51:27.347Z,1002.43
2019-05-10T03:52:27.335Z,1002.48
2019-05-10T03:53:27.305Z,1002.49
2019-05-10T03:54:27.298Z,1002.50
2019-05-10T03:55:27.267Z,1002.52
2019-05-10T03:56:29.919Z,1002.52
2019-05-10T03:57:27.226Z,1002.54
2019-05-10T03:58:27.210Z,1002.56
2019-05-10T03:59:27.194Z,1002.59
2019-05-10T04:00:27.184Z,1002.60
2019-05-10T04:01:27.153Z,1002.57
2019-05-10T04:02:27.154Z,1002.60
2019-05-10T04:03:27.115Z,1002.60
2019-05-10T04:04:27.104Z,1002.61
2019-05-10T04:05:27.071Z,1002.61
2019-05-10T04:06:27.048Z,1002.61
2019-05-10T04:07:27.029Z,1002.63
2019-05-10T04:08:27.037Z,1002.62
2019-05-10T04:09:27.002Z,1002.66
2019-05-10T04:10:26.975Z,1002.69
2019-05-10T04:11:26.950Z,1002.70
2019-05-10T04:12:26.936Z,1002.69
2019-05-10T04:13:26.945Z,1002.70
2019-05-10T04:14:26.915Z,1002.71
2019-05-10T04:15:26.877Z,1002.77
2019-05-10T04:16:26.857Z,1002.77
2019-05-10T04:17:26.830Z,1002.75
2019-05-10T04:18:26.824Z,1002.78
2019-05-10T04:19:26.792Z,1002.77
2019-05-10T04:20:26.796Z,1002.80
2019-05-10T04:21:26.762Z,1002.82
2019-05-10T04:22:26.735Z,1002.83
2019-05-10T04:23:26.753Z,1002.84
2019-05-10T04:24:26.701Z,1002.85
2019-05-10T04:25:26.677Z,1002.85
2019-05-10T04:26:26.723Z,1002.86
2019-05-10T04:27:32.041Z,1002.87
2019-05-10T04:28:26.619Z,1002.89
2019-05-10T04:29:26.597Z,1002.92
2019-05-10T04:30:31.378Z,1002.91
2019-05-10T04:31:26.561Z,1002.94
2019-05-10T04:32:26.554Z,1002.95
2019-05-10T04:33:26.517Z,1002.95
2019-05-10T04:34:26.500Z,1002.93
2019-05-10T04:35:26.480Z,1002.99
2019-05-10T04:36:26.475Z,1003.00
2019-05-10T04:37:26.456Z,1002.99
2019-05-10T04:38:26.420Z,1003.02
2019-05-10T04:39:26.397Z,1003.07
2019-05-10T04:40:26.383Z,1003.08
2019-05-10T04:41:28.297Z,1003.12
2019-05-10T04:42:26.361Z,1003.06
2019-05-10T04:43:26.336Z,1003.11
2019-05-10T04:44:26.297Z,1003.09
2019-05-10T04:45:26.280Z,1003.12
2019-05-10T04:46:26.259Z,1003.14
2019-05-10T04:47:26.238Z,1003.15
2019-05-10T04:48:26.246Z,1003.15
2019-05-10T04:49:26.203Z,1003.15
2019-05-10T04:50:26.189Z,1003.17
2019-05-10T04:51:26.202Z,1003.20
2019-05-10T04:52:26.145Z,1003.23
2019-05-10T04:53:26.128Z,1003.22
2019-05-10T04:54:26.153Z,1003.27
2019-05-10T04:55:26.107Z,1003.27
2019-05-10T04:56:26.084Z,1003.29
2019-05-10T04:57:26.048Z,1003.31
2019-05-10T04:58:26.029Z,1003.29
2019-05-10T04:59:26.009Z,1003.32
2019-05-10T05:00:25.986Z,1003.34
2019-05-10T05:01:26.038Z,1003.32
2019-05-10T05:02:26.068Z,1003.36
2019-05-10T05:03:25.924Z,1003.39
2019-05-10T05:04:25.911Z,1003.36
2019-05-10T05:05:25.900Z,1003.37
2019-05-10T05:06:25.872Z,1003.37
2019-05-10T05:07:25.878Z,1003.42
2019-05-10T05:08:25.833Z,1003.42
2019-05-10T05:09:25.830Z,1003.43
2019-05-10T05:10:25.797Z,1003.43
2019-05-10T05:11:25.768Z,1003.45
2019-05-10T05:12:26.805Z,1003.45
2019-05-10T05:13:25.783Z,1003.48
2019-05-10T05:14:25.713Z,1003.48
2019-05-10T05:15:25.694Z,1003.48
2019-05-10T05:16:25.682Z,1003.49
2019-05-10T05:17:25.658Z,1003.54
2019-05-10T05:18:25.637Z,1003.51
2019-05-10T05:19:25.633Z,1003.55
2019-05-10T05:20:25.625Z,1003.58
2019-05-10T05:21:25.578Z,1003.56
2019-05-10T05:22:25.565Z,1003.60
2019-05-10T05:23:25.539Z,1003.59
2019-05-10T05:24:25.557Z,1003.65
2019-05-10T05:25:25.501Z,1003.62
2019-05-10T05:26:25.488Z,1003.67
2019-05-10T05:27:25.462Z,1003.72
2019-05-10T05:28:25.442Z,1003.70
2019-05-10T05:29:25.435Z,1003.73
2019-05-10T05:30:25.418Z,1003.77
2019-05-10T05:31:25.401Z,1003.80
2019-05-10T05:32:25.368Z,1003.79
2019-05-10T05:33:25.351Z,1003.83
2019-05-10T05:34:25.385Z,1003.80
2019-05-10T05:35:25.321Z,1003.79
2019-05-10T05:36:25.309Z,1003.80
2019-05-10T05:37:25.284Z,1003.78
2019-05-10T05:38:25.256Z,1003.81
2019-05-10T05:39:25.239Z,1003.83
2019-05-10T05:40:25.242Z,1003.81
2019-05-10T05:41:25.196Z,1003.83
2019-05-10T05:42:27.923Z,1003.80
2019-05-10T05:43:25.163Z,1003.83
2019-05-10T05:44:26.066Z,1003.86
2019-05-10T05:45:28.367Z,1003.86
2019-05-10T05:46:25.121Z,1003.88
2019-05-10T05:47:25.102Z,1003.86
2019-05-10T05:48:39.429Z,1003.85
2019-05-10T05:49:25.043Z,1003.89
2019-05-10T05:50:25.039Z,1003.89
2019-05-10T05:51:24.998Z,1003.92
2019-05-10T05:52:24.980Z,1003.93
2019-05-10T05:53:24.963Z,1003.88
2019-05-10T05:54:24.987Z,1003.90
2019-05-10T05:55:30.774Z,1003.96
2019-05-10T05:56:24.918Z,1003.91
2019-05-10T05:57:27.602Z,1003.97
2019-05-10T05:58:27.156Z,1003.97
2019-05-10T05:59:26.259Z,1004.05
2019-05-10T06:00:24.829Z,1004.03
2019-05-10T06:01:28.831Z,1004.03
2019-05-10T06:02:24.812Z,1004.07
2019-05-10T06:03:29.386Z,1004.07
2019-05-10T06:04:24.747Z,1004.11
2019-05-10T06:05:34.148Z,1004.08
2019-05-10T06:06:24.720Z,1004.14
2019-05-10T06:07:25.314Z,1004.12
2019-05-10T06:08:25.161Z,1004.16
2019-05-10T06:09:24.683Z,1004.17
2019-05-10T06:10:24.639Z,1004.16
2019-05-10T06:11:24.637Z,1004.21
2019-05-10T06:12:24.616Z,1004.27
2019-05-10T06:13:30.529Z,1004.25
2019-05-10T06:14:24.560Z,1004.25
2019-05-10T06:15:28.919Z,1004.23
2019-05-10T06:16:24.522Z,1004.22
2019-05-10T06:17:29.383Z,1004.25
2019-05-10T06:18:25.347Z,1004.25
2019-05-10T06:19:29.510Z,1004.28
2019-05-10T06:20:24.444Z,1004.29
2019-05-10T06:21:26.704Z,1004.29
2019-05-10T06:22:24.422Z,1004.30
2019-05-10T06:23:29.173Z,1004.34
2019-05-10T06:24:24.376Z,1004.34
2019-05-10T06:25:38.104Z,1004.34
2019-05-10T06:26:28.527Z,1004.42
2019-05-10T06:27:24.306Z,1004.41
2019-05-10T06:28:28.949Z,1004.40
2019-05-10T06:29:24.268Z,1004.45
2019-05-10T06:30:24.271Z,1004.44
2019-05-10T06:31:24.229Z,1004.43
2019-05-10T06:32:24.211Z,1004.46
2019-05-10T06:33:24.194Z,1004.46
2019-05-10T06:34:24.174Z,1004.49
2019-05-10T06:35:24.156Z,1004.52
2019-05-10T06:36:24.166Z,1004.53
2019-05-10T06:37:24.111Z,1004.55
2019-05-10T06:38:24.097Z,1004.57
2019-05-10T06:39:24.080Z,1004.58
2019-05-10T06:40:33.560Z,1004.58
2019-05-10T06:41:24.036Z,1004.57
2019-05-10T06:42:28.749Z,1004.61
2019-05-10T06:43:24.002Z,1004.60
2019-05-10T06:44:25.114Z,1004.62
2019-05-10T06:45:23.960Z,1004.66
2019-05-10T06:46:29.223Z,1004.70
2019-05-10T06:47:23.919Z,1004.67
2019-05-10T06:48:29.601Z,1004.67
2019-05-10T06:49:23.886Z,1004.71
2019-05-10T06:50:30.064Z,1004.68
2019-05-10T06:51:23.843Z,1004.68
2019-05-10T06:52:27.826Z,1004.70
2019-05-10T06:53:23.809Z,1004.73
2019-05-10T06:54:23.789Z,1004.71
2019-05-10T06:55:23.774Z,1004.73
2019-05-10T06:56:23.768Z,1004.76
2019-05-10T06:57:23.747Z,1004.76
2019-05-10T06:58:23.716Z,1004.78
2019-05-10T06:59:24.738Z,1004.83
2019-05-10T07:00:23.673Z,1004.84
2019-05-10T07:01:23.649Z,1004.86
2019-05-10T07:02:26.629Z,1004.89
2019-05-10T07:03:23.642Z,1004.93
2019-05-10T07:04:23.598Z,1004.95
2019-05-10T07:05:23.577Z,1004.93
2019-05-10T07:06:23.562Z,1004.96
2019-05-10T07:07:42.605Z,1004.95
2019-05-10T07:08:23.523Z,1004.96
2019-05-10T07:09:23.519Z,1005.00
2019-05-10T07:10:25.420Z,1005.02
2019-05-10T07:11:23.491Z,1005.06
2019-05-10T07:12:23.456Z,1005.06
2019-05-10T07:13:23.434Z,1005.07
2019-05-10T07:14:27.138Z,1005.10
2019-05-10T07:15:23.394Z,1005.13
2019-05-10T07:16:25.565Z,1005.18
2019-05-10T07:17:23.866Z,1005.23
2019-05-10T07:18:24.279Z,1005.26
2019-05-10T07:19:23.314Z,1005.26
2019-05-10T07:20:23.560Z,1005.28
2019-05-10T07:21:23.282Z,1005.25
2019-05-10T07:22:27.238Z,1005.23
2019-05-10T07:23:23.236Z,1005.27
2019-05-10T07:24:24.921Z,1005.27
2019-05-10T07:25:23.206Z,1005.29
2019-05-10T07:26:26.322Z,1005.29
2019-05-10T07:27:23.159Z,1005.32
2019-05-10T07:28:23.151Z,1005.31
2019-05-10T07:29:30.078Z,1005.30
2019-05-10T07:30:23.105Z,1005.32
2019-05-10T07:31:23.818Z,1005.34
2019-05-10T07:32:24.588Z,1005.36
2019-05-10T07:33:23.064Z,1005.39
2019-05-10T07:34:23.029Z,1005.42
2019-05-10T07:35:23.016Z,1005.45
2019-05-10T07:36:27.466Z,1005.46
2019-05-10T07:37:22.975Z,1005.48
2019-05-10T07:38:23.886Z,1005.51
2019-05-10T07:39:22.934Z,1005.52
2019-05-10T07:40:22.935Z,1005.55
2019-05-10T07:41:26.318Z,1005.58
2019-05-10T07:42:22.897Z,1005.60
2019-05-10T07:43:26.281Z,1005.60
2019-05-10T07:44:22.864Z,1005.61
2019-05-10T07:45:25.608Z,1005.61
2019-05-10T07:46:22.810Z,1005.59
2019-05-10T07:47:24.094Z,1005.60
2019-05-10T07:48:23.354Z,1005.59
2019-05-10T07:49:23.842Z,1005.61
2019-05-10T07:50:22.751Z,1005.64
2019-05-10T07:51:28.100Z,1005.64
2019-05-10T07:52:22.719Z,1005.62
2019-05-10T07:53:25.092Z,1005.64
2019-05-10T07:54:22.672Z,1005.64
2019-05-10T07:55:28.078Z,1005.66
2019-05-10T07:56:22.642Z,1005.67
2019-05-10T07:57:24.936Z,1005.71
2019-05-10T07:58:22.600Z,1005.68
2019-05-10T07:59:28.025Z,1005.75
2019-05-10T08:00:25.364Z,1005.78
2019-05-10T08:01:32.290Z,1005.78
2019-05-10T08:02:22.513Z,1005.79
2019-05-10T08:03:23.852Z,1005.74
2019-05-10T08:04:28.918Z,1005.79
2019-05-10T08:05:22.459Z,1005.80
2019-05-10T08:06:22.456Z,1005.80
2019-05-10T08:07:22.430Z,1005.80
2019-05-10T08:08:22.404Z,1005.80
2019-05-10T08:09:22.391Z,1005.78
2019-05-10T08:10:22.380Z,1005.77
2019-05-10T08:11:22.362Z,1005.75
2019-05-10T08:12:22.333Z,1005.75
2019-05-10T08:13:25.054Z,1005.76
2019-05-10T08:14:25.295Z,1005.77
2019-05-10T08:15:24.732Z,1005.77
2019-05-10T08:16:23.057Z,1005.78
2019-05-10T08:17:22.254Z,1005.82
2019-05-10T08:18:25.357Z,1005.82
2019-05-10T08:19:22.229Z,1005.85
2019-05-10T08:20:38.297Z,1005.84
2019-05-10T08:21:26.268Z,1005.85
2019-05-10T08:22:22.916Z,1005.87
2019-05-10T08:23:23.766Z,1005.87
2019-05-10T08:24:22.326Z,1005.87
2019-05-10T08:25:23.048Z,1005.85
2019-05-10T08:26:24.689Z,1005.90
2019-05-10T08:27:23.000Z,1005.89
2019-05-10T08:28:22.822Z,1005.93
2019-05-10T08:29:22.491Z,1005.95
2019-05-10T08:30:28.758Z,1005.97
2019-05-10T08:31:25.967Z,1006.00
2019-05-10T08:32:25.566Z,1006.01
2019-05-10T08:33:22.884Z,1006.02
2019-05-10T08:34:22.765Z,1006.06
2019-05-10T08:35:21.945Z,1006.07
2019-05-10T08:36:22.017Z,1006.08
2019-05-10T08:37:33.144Z,1006.05
2019-05-10T08:38:22.015Z,1006.07
2019-05-10T08:39:22.433Z,1006.10
2019-05-10T08:40:25.935Z,1006.11
2019-05-10T08:41:22.320Z,1006.13
2019-05-10T08:42:37.719Z,1006.16
2019-05-10T08:43:24.330Z,1006.21
2019-05-10T08:44:23.919Z,1006.19
2019-05-10T08:45:22.663Z,1006.18
2019-05-10T08:46:29.153Z,1006.22
2019-05-10T08:47:26.837Z,1006.22
2019-05-10T08:48:23.346Z,1006.26
2019-05-10T08:49:25.215Z,1006.23
2019-05-10T08:50:43.581Z,1006.22
2019-05-10T08:51:22.758Z,1006.28
2019-05-10T08:52:26.922Z,1006.25
2019-05-10T08:53:23.080Z,1006.29
2019-05-10T08:54:22.502Z,1006.28
2019-05-10T08:55:22.633Z,1006.29
2019-05-10T08:56:24.077Z,1006.26
2019-05-10T08:57:22.279Z,1006.27
2019-05-10T08:58:31.055Z,1006.31
2019-05-10T08:59:26.469Z,1006.33
2019-05-10T09:00:38.362Z,1006.33
2019-05-10T09:01:29.663Z,1006.37
2019-05-10T09:02:28.918Z,1006.40
2019-05-10T09:03:22.710Z,1006.46
2019-05-10T09:04:22.204Z,1006.47
2019-05-10T09:05:29.226Z,1006.45
2019-05-10T09:06:22.023Z,1006.48
2019-05-10T09:07:23.286Z,1006.47
2019-05-10T09:08:24.406Z,1006.52
2019-05-10T09:09:22.790Z,1006.51
2019-05-10T09:10:22.072Z,1006.56
2019-05-10T09:11:23.142Z,1006.52
2019-05-10T09:12:23.094Z,1006.56
2019-05-10T09:13:22.855Z,1006.59
2019-05-10T09:14:24.031Z,1006.59
2019-05-10T09:15:22.275Z,1006.64
2019-05-10T09:16:23.729Z,1006.59
2019-05-10T09:17:23.636Z,1006.59
2019-05-10T09:18:22.877Z,1006.57
2019-05-10T09:19:28.276Z,1006.65
2019-05-10T09:20:26.226Z,1006.62
2019-05-10T09:21:22.352Z,1006.66
2019-05-10T09:22:24.065Z,1006.68
2019-05-10T09:23:22.779Z,1006.68
2019-05-10T09:24:22.845Z,1006.66
2019-05-10T09:25:29.263Z,1006.71
2019-05-10T09:26:22.752Z,1006.72
2019-05-10T09:27:22.424Z,1006.74
2019-05-10T09:28:21.910Z,1006.75
2019-05-10T09:29:21.909Z,1006.77
2019-05-10T09:30:21.983Z,1006.76
2019-05-10T09:31:25.292Z,1006.76
2019-05-10T09:32:28.654Z,1006.82
2019-05-10T09:33:22.396Z,1006.84
2019-05-10T09:34:23.779Z,1006.85
2019-05-10T09:35:22.166Z,1006.82
2019-05-10T09:36:23.062Z,1006.90
2019-05-10T09:37:22.466Z,1006.90
2019-05-10T09:38:22.126Z,1006.92
2019-05-10T09:39:24.314Z,1006.94
2019-05-10T09:40:21.965Z,1006.95
2019-05-10T09:41:22.662Z,1006.94
2019-05-10T09:42:26.771Z,1006.95
2019-05-10T09:43:23.583Z,1006.96
2019-05-10T09:44:22.764Z,1006.94
2019-05-10T09:45:24.156Z,1006.99
2019-05-10T09:46:22.774Z,1006.94
2019-05-10T09:47:22.178Z,1006.95
2019-05-10T09:48:22.813Z,1006.99
2019-05-10T09:49:23.003Z,1007.00
2019-05-10T09:50:22.802Z,1007.07
2019-05-10T09:51:27.966Z,1007.04
2019-05-10T09:52:20.528Z,1007.07
2019-05-10T09:53:26.155Z,1007.06
2019-05-10T09:54:23.182Z,1007.07
2019-05-10T09:55:20.491Z,1007.03
2019-05-10T09:56:20.466Z,1007.09
2019-05-10T09:57:20.459Z,1007.10
2019-05-10T09:58:22.228Z,1007.10
2019-05-10T09:59:20.402Z,1007.15
2019-05-10T10:00:20.388Z,1007.11
2019-05-10T10:01:21.854Z,1007.14
2019-05-10T10:02:20.346Z,1007.13
2019-05-10T10:03:20.341Z,1007.15
2019-05-10T10:04:20.574Z,1007.15
2019-05-10T10:05:20.297Z,1007.16
2019-05-10T10:06:20.333Z,1007.18
2019-05-10T10:07:24.181Z,1007.19
2019-05-10T10:08:20.256Z,1007.20
2019-05-10T10:09:24.507Z,1007.23
2019-05-10T10:10:28.595Z,1007.26
2019-05-10T10:11:20.193Z,1007.21
2019-05-10T10:14:02.456Z,1007.23
2019-05-10T10:15:02.317Z,1007.28
2019-05-10T10:16:04.159Z,1007.27
2019-05-10T10:17:03.300Z,1007.25
2019-05-10T10:18:02.261Z,1007.27
2019-05-10T10:19:02.245Z,1007.27
2019-05-10T10:20:02.242Z,1007.32
2019-05-10T10:21:02.209Z,1007.29
2019-05-10T10:22:05.472Z,1007.34
2019-05-10T10:23:02.170Z,1007.32
2019-05-10T10:24:14.494Z,1007.35
2019-05-10T10:25:02.133Z,1007.33
2019-05-10T10:26:02.143Z,1007.37
2019-05-10T10:27:02.108Z,1007.38
2019-05-10T10:28:02.080Z,1007.36
2019-05-10T10:29:02.058Z,1007.40
2019-05-10T10:30:06.691Z,1007.38
2019-05-10T10:31:05.245Z,1007.38
2019-05-10T10:32:02.033Z,1007.41
2019-05-10T10:33:05.752Z,1007.38
2019-05-10T10:34:03.132Z,1007.39
2019-05-10T10:35:01.953Z,1007.43
2019-05-10T10:36:07.641Z,1007.41
2019-05-10T10:37:01.943Z,1007.41
2019-05-10T10:38:03.118Z,1007.39
2019-05-10T10:40:44.884Z,1007.36
2019-05-10T10:41:43.819Z,1007.37
2019-05-10T10:42:43.834Z,1007.32
2019-05-10T10:43:43.801Z,1007.32
2019-05-10T10:44:43.771Z,1007.31
2019-05-10T10:45:43.752Z,1007.31
2019-05-10T10:46:43.736Z,1007.34
2019-05-10T10:47:43.715Z,1007.30
2019-05-10T10:48:48.907Z,1007.33
2019-05-10T10:49:43.688Z,1007.29
2019-05-10T10:50:53.434Z,1007.29
2019-05-10T10:51:43.647Z,1007.27
2019-05-10T10:52:43.627Z,1007.35
2019-05-10T10:53:43.614Z,1007.35
2019-05-10T10:54:43.613Z,1007.36
2019-05-10T10:55:46.091Z,1007.35
2019-05-10T10:56:43.557Z,1007.38
2019-05-10T10:59:25.850Z,1007.36
2019-05-10T11:00:27.680Z,1007.39
2019-05-10T11:01:33.095Z,1007.38
2019-05-10T11:02:32.385Z,1007.40
2019-05-10T11:03:30.214Z,1007.35
2019-05-10T11:04:25.783Z,1007.41
2019-05-10T11:05:25.749Z,1007.42
2019-05-10T11:06:25.740Z,1007.42
2019-05-10T11:07:25.705Z,1007.46
2019-05-10T11:08:25.702Z,1007.48
2019-05-10T11:09:25.669Z,1007.46
2019-05-10T11:10:25.655Z,1007.46
2019-05-10T11:11:30.725Z,1007.50
2019-05-10T11:12:25.621Z,1007.49
2019-05-10T11:13:41.342Z,1007.53
2019-05-10T11:14:25.602Z,1007.51
2019-05-10T11:15:28.235Z,1007.52
2019-05-10T11:16:25.546Z,1007.49
2019-05-10T11:17:25.543Z,1007.51
2019-05-10T11:18:25.510Z,1007.49
2019-05-10T11:19:25.498Z,1007.51
2019-05-10T11:20:25.481Z,1007.52
2019-05-10T11:21:28.756Z,1007.50
2019-05-10T11:22:27.381Z,1007.51
2019-05-10T11:23:34.122Z,1007.52
2019-05-10T11:24:25.404Z,1007.49
2019-05-10T11:25:25.381Z,1007.50
2019-05-10T11:26:26.805Z,1007.48
2019-05-10T11:27:25.364Z,1007.48
2019-05-10T11:28:32.028Z,1007.50
2019-05-10T11:29:27.863Z,1007.47
2019-05-10T11:30:25.297Z,1007.44
2019-05-10T11:31:25.281Z,1007.43
2019-05-10T11:32:25.264Z,1007.49
2019-05-10T11:33:29.901Z,1007.47
2019-05-10T11:34:29.358Z,1007.52
2019-05-10T11:35:30.503Z,1007.50
2019-05-10T11:36:25.186Z,1007.55
2019-05-10T11:37:30.860Z,1007.54
2019-05-10T11:38:25.175Z,1007.55
2019-05-10T11:39:26.771Z,1007.55
2019-05-10T11:40:30.634Z,1007.54
2019-05-10T11:41:25.094Z,1007.55
2019-05-10T11:42:25.090Z,1007.55
2019-05-10T11:43:27.071Z,1007.57
2019-05-10T11:44:25.959Z,1007.54
2019-05-10T11:45:26.253Z,1007.53
2019-05-10T11:46:27.804Z,1007.50
2019-05-10T11:47:27.171Z,1007.52
2019-05-10T11:48:28.951Z,1007.52
2019-05-10T11:49:24.968Z,1007.55
2019-05-10T11:50:31.273Z,1007.56
2019-05-10T11:51:24.915Z,1007.60
2019-05-10T11:52:29.239Z,1007.56
2019-05-10T11:53:24.883Z,1007.57
2019-05-10T11:54:24.858Z,1007.54
2019-05-10T11:55:24.846Z,1007.50
2019-05-10T11:56:27.544Z,1007.53
2019-05-10T11:57:24.809Z,1007.56
2019-05-10T11:58:24.808Z,1007.58
2019-05-10T11:59:27.266Z,1007.56
2019-05-10T12:00:31.348Z,1007.55
2019-05-10T12:01:24.740Z,1007.55
2019-05-10T12:02:37.340Z,1007.56
2019-05-10T12:03:24.706Z,1007.55
2019-05-10T12:04:36.403Z,1007.54
2019-05-10T12:05:26.767Z,1007.59
2019-05-10T12:06:24.646Z,1007.57
2019-05-10T12:07:35.223Z,1007.59
2019-05-10T12:08:24.614Z,1007.58
2019-05-10T12:09:24.646Z,1007.56
2019-05-10T12:10:25.663Z,1007.53